Time;durP1;ratioP1;P1;durP2;ratioP2;P2;SDS_P1;SDS_P2;PMS_P1;PMS_P2;Temp;Humidity;BMP_temperature;BMP_pressure;BME280_temperature;BME280_humidity;BME280_pressure;Samples;Min_cycle;Max_cycle;Signal;HPM_P1;HPM_P2
2024/03/02 00:01:15;;;;;;;32.57;22.97;;;;;;;7.45;84.95;100097.25;5066300;28;20197;-65
2024/03/02 00:03:43;;;;;;;37.83;22.23;;;;;;;7.42;85.31;100078.44;5062433;28;20197;-62
2024/03/02 00:06:11;;;;;;;35.70;22.90;;;;;;;7.41;86.02;100087.00;5060616;28;20312;-66
2024/03/02 00:08:40;;;;;;;35.07;22.83;;;;;;;7.40;86.22;100092.94;5057204;28;20248;-64
2024/03/02 00:11:10;;;;;;;36.37;23.50;;;;;;;7.38;85.59;100077.56;5066427;28;20680;-62
2024/03/02 00:13:39;;;;;;;34.30;23.00;;;;;;;7.36;85.68;100080.97;5067561;28;20601;-63
2024/03/02 00:16:07;;;;;;;37.40;23.67;;;;;;;7.36;86.02;100081.84;5064153;28;20220;-62
2024/03/02 00:18:37;;;;;;;36.50;22.63;;;;;;;7.37;85.90;100077.59;5073027;28;20625;-63
2024/03/02 00:21:09;;;;;;;37.43;23.90;;;;;;;7.36;85.37;100073.28;5070223;28;20205;-63
2024/03/02 00:23:38;;;;;;;33.10;22.40;;;;;;;7.37;85.72;100077.59;5072851;28;20201;-63
2024/03/02 00:26:08;;;;;;;34.03;22.17;;;;;;;7.33;85.76;100083.53;5071373;28;20205;-63
2024/03/02 00:28:38;;;;;;;37.73;23.07;;;;;;;7.29;86.28;100076.69;5074059;28;20205;-65
2024/03/02 00:31:07;;;;;;;34.50;21.80;;;;;;;7.27;86.08;100066.44;5069519;28;20251;-63
2024/03/02 00:33:40;;;;;;;36.97;21.43;;;;;;;7.24;85.94;100074.13;5069160;28;20198;-65
2024/03/02 00:36:09;;;;;;;37.30;22.33;;;;;;;7.23;86.37;100070.72;5075325;28;20262;-63
2024/03/02 00:38:46;;;;;;;35.63;23.23;;;;;;;7.22;86.10;100074.13;5073551;28;20209;-64
2024/03/02 00:41:22;;;;;;;35.87;22.73;;;;;;;7.19;86.23;100079.25;5072548;28;20228;-63
2024/03/02 00:44:00;;;;;;;35.87;21.67;;;;;;;7.17;87.00;100064.72;5074302;28;20546;-64
2024/03/02 00:46:31;;;;;;;35.20;22.17;;;;;;;7.15;86.25;100064.72;5070106;28;20270;-63
2024/03/02 00:49:02;;;;;;;36.43;23.13;;;;;;;7.12;86.07;100074.94;5073945;28;20208;-64
2024/03/02 00:51:32;;;;;;;30.97;21.50;;;;;;;7.09;86.31;100071.53;5069099;28;20213;-64
2024/03/02 00:54:03;;;;;;;31.30;20.53;;;;;;;7.08;86.31;100078.34;5069405;28;20207;-62
2024/03/02 00:56:33;;;;;;;35.17;22.47;;;;;;;7.07;86.90;100076.66;5072804;28;20209;-63
2024/03/02 00:59:01;;;;;;;34.67;22.50;;;;;;;7.10;87.29;100084.31;5074041;28;20267;-64
2024/03/02 01:01:29;;;;;;;35.23;22.90;;;;;;;7.09;86.35;100072.38;5073269;28;20202;-63
2024/03/02 01:03:57;;;;;;;34.83;21.77;;;;;;;7.09;86.19;100077.50;5070122;28;20700;-66
2024/03/02 01:06:27;;;;;;;35.30;23.27;;;;;;;7.08;86.43;100073.25;5062907;28;20303;-63
2024/03/02 01:08:56;;;;;;;34.00;22.70;;;;;;;7.07;85.99;100068.97;5077652;28;20204;-65
2024/03/02 01:11:24;;;;;;;37.60;22.70;;;;;;;7.07;85.89;100065.53;5070127;28;20206;-62
2024/03/02 01:13:52;;;;;;;35.67;22.37;;;;;;;7.03;86.29;100067.22;5072824;28;20264;-64
2024/03/02 01:16:21;;;;;;;36.00;22.40;;;;;;;7.00;86.59;100060.41;5061870;28;20581;-66
2024/03/02 01:18:49;;;;;;;34.10;22.70;;;;;;;7.01;87.17;100063.81;5072981;28;20213;-64
2024/03/02 01:21:17;;;;;;;35.10;22.33;;;;;;;6.98;86.87;100062.09;5070733;28;20296;-63
2024/03/02 01:23:47;;;;;;;32.53;21.80;;;;;;;6.94;86.56;100060.38;5064921;28;20207;-65
2024/03/02 01:26:15;;;;;;;35.57;21.77;;;;;;;6.90;87.34;100055.25;5070238;28;20213;-63
2024/03/02 01:28:43;;;;;;;29.70;20.63;;;;;;;6.91;87.15;100067.19;5072676;28;20205;-63
2024/03/02 01:31:11;;;;;;;32.40;23.20;;;;;;;6.92;87.52;100056.09;5072786;28;20201;-63
2024/03/02 01:33:39;;;;;;;35.10;23.70;;;;;;;6.88;87.59;100047.53;5069537;28;20205;-63
2024/03/02 01:36:08;;;;;;;33.13;21.23;;;;;;;6.90;87.35;100055.25;5068314;28;20626;-63
2024/03/02 01:38:36;;;;;;;34.97;22.37;;;;;;;6.89;87.69;100064.63;5071075;28;20255;-64
2024/03/02 01:41:05;;;;;;;34.87;22.63;;;;;;;6.86;87.25;100058.66;5074334;28;20245;-63
2024/03/02 01:43:33;;;;;;;32.33;22.47;;;;;;;6.82;87.72;100041.56;5072836;28;20197;-63
2024/03/02 01:46:04;;;;;;;31.60;20.27;;;;;;;6.82;87.33;100044.97;5069620;28;20278;-63
2024/03/02 01:48:34;;;;;;;35.73;22.17;;;;;;;6.77;87.41;100042.41;5071324;28;20662;-64
2024/03/02 01:51:06;;;;;;;37.47;23.40;;;;;;;6.78;88.07;100049.22;5072474;28;20204;-64
2024/03/02 01:53:35;;;;;;;35.00;21.93;;;;;;;6.78;88.32;100046.66;5071682;28;20209;-63
2024/03/02 01:56:03;;;;;;;33.83;21.37;;;;;;;6.77;87.42;100044.09;5072671;28;20251;-62
2024/03/02 01:58:33;;;;;;;31.77;20.70;;;;;;;6.76;87.46;100035.56;5072333;28;20211;-63
2024/03/02 02:01:01;;;;;;;35.80;22.23;;;;;;;6.74;87.52;100034.72;5057978;28;20213;-63
2024/03/02 02:03:30;;;;;;;34.73;21.93;;;;;;;6.73;87.49;100043.22;5069254;28;20650;-62
2024/03/02 02:05:58;;;;;;;32.23;21.53;;;;;;;6.71;88.01;100037.25;5066746;28;20223;-64
2024/03/02 02:08:26;;;;;;;31.40;22.03;;;;;;;6.72;88.06;100038.94;5072479;28;20271;-62
2024/03/02 02:10:55;;;;;;;36.27;22.47;;;;;;;6.70;88.59;100040.66;5072383;28;20217;-63
2024/03/02 02:13:22;;;;;;;35.10;22.63;;;;;;;6.68;88.95;100042.34;5071766;28;20269;-64
2024/03/02 02:15:52;;;;;;;32.83;21.13;;;;;;;6.69;88.06;100045.75;5072468;28;20665;-67
2024/03/02 02:18:21;;;;;;;33.63;21.93;;;;;;;6.67;88.30;100035.53;5063774;28;20198;-63
2024/03/02 02:20:49;;;;;;;35.13;21.37;;;;;;;6.66;88.32;100036.34;5066283;28;20201;-63
2024/03/02 02:23:18;;;;;;;31.37;21.43;;;;;;;6.64;88.14;100032.09;5063617;28;20662;-62
2024/03/02 02:25:46;;;;;;;33.57;21.67;;;;;;;6.64;89.29;100025.28;5072033;28;20292;-66
2024/03/02 02:28:14;;;;;;;33.27;22.20;;;;;;;6.63;88.66;100031.25;5070301;28;20217;-63
2024/03/02 02:30:42;;;;;;;32.90;21.67;;;;;;;6.63;88.48;100025.25;5071627;28;20200;-63
2024/03/02 02:33:10;;;;;;;31.47;20.20;;;;;;;6.61;88.12;100030.38;5071253;28;20198;-62
2024/03/02 02:35:38;;;;;;;31.90;20.87;;;;;;;6.59;88.69;100029.53;5071464;28;20208;-62
2024/03/02 02:38:07;;;;;;;29.20;19.10;;;;;;;6.58;88.71;100021.81;5061439;28;20225;-63
2024/03/02 02:40:36;;;;;;;31.67;21.17;;;;;;;6.55;88.66;100027.78;5067241;28;20213;-61
2024/03/02 02:43:06;;;;;;;34.67;21.73;;;;;;;6.53;88.64;100021.81;5071143;28;20210;-63
2024/03/02 02:45:35;;;;;;;32.33;21.57;;;;;;;6.50;89.29;100021.78;5067111;28;20198;-63
2024/03/02 02:48:06;;;;;;;34.23;21.40;;;;;;;6.49;88.73;100025.22;5060341;28;20220;-62
2024/03/02 02:50:36;;;;;;;33.57;20.67;;;;;;;6.48;88.74;100026.03;5070967;28;20201;-61
2024/03/02 02:53:04;;;;;;;32.27;21.07;;;;;;;6.47;89.48;100024.34;5069570;28;20197;-63
2024/03/02 02:55:32;;;;;;;34.93;21.37;;;;;;;6.48;89.72;100016.69;5065914;28;20771;-62
2024/03/02 02:58:04;;;;;;;30.30;21.53;;;;;;;6.47;89.64;100029.44;5066797;28;20239;-62
2024/03/02 03:00:32;;;;;;;29.90;19.97;;;;;;;6.44;89.31;100014.06;5067236;28;20225;-62
2024/03/02 03:03:03;;;;;;;29.60;20.87;;;;;;;6.43;89.31;100012.38;5065438;28;20284;-62
2024/03/02 03:05:33;;;;;;;31.57;20.50;;;;;;;6.40;89.51;100014.91;5071050;28;20259;-61
2024/03/02 03:08:02;;;;;;;34.50;21.20;;;;;;;6.39;89.42;100008.94;5071234;28;20213;-62
2024/03/02 03:10:30;;;;;;;28.73;19.97;;;;;;;6.38;89.64;100003.84;5071066;28;20237;-62
2024/03/02 03:12:58;;;;;;;27.93;20.13;;;;;;;6.36;89.63;100006.38;5071036;28;20244;-65
2024/03/02 03:15:28;;;;;;;28.53;18.93;;;;;;;6.35;89.76;100003.81;5060398;28;20215;-62
2024/03/02 03:17:56;;;;;;;30.33;19.53;;;;;;;6.34;89.81;100004.66;5070740;28;20209;-62
2024/03/02 03:20:24;;;;;;;33.17;21.10;;;;;;;6.33;90.72;100002.94;5067584;28;20205;-63
2024/03/02 03:22:52;;;;;;;31.43;20.60;;;;;;;6.32;89.51;100003.78;5070817;28;20602;-61
2024/03/02 03:25:20;;;;;;;31.43;19.43;;;;;;;6.32;90.36;100011.47;5071161;28;20715;-63
2024/03/02 03:27:48;;;;;;;31.47;19.73;;;;;;;6.29;90.17;100018.25;5070114;28;20231;-62
2024/03/02 03:30:16;;;;;;;31.17;19.07;;;;;;;6.26;90.33;100005.47;5071145;28;20267;-67
2024/03/02 03:32:47;;;;;;;29.60;19.00;;;;;;;6.26;90.29;99997.81;5061244;28;20202;-61
2024/03/02 03:35:16;;;;;;;31.30;19.87;;;;;;;6.26;90.73;100008.03;5070313;28;20287;-62
2024/03/02 03:37:44;;;;;;;30.43;20.07;;;;;;;6.24;90.20;100002.03;5070596;28;20205;-62
2024/03/02 03:40:13;;;;;;;32.40;19.83;;;;;;;6.20;90.32;100010.56;5067357;28;20247;-63
2024/03/02 03:42:41;;;;;;;33.40;21.30;;;;;;;6.18;90.35;100009.69;5071009;28;20225;-62
2024/03/02 03:45:10;;;;;;;27.23;19.17;;;;;;;6.19;90.32;100016.53;5069682;28;20204;-62
2024/03/02 03:47:38;;;;;;;29.40;19.43;;;;;;;6.18;90.24;100004.56;5067163;28;21995;-61
2024/03/02 03:50:08;;;;;;;30.63;20.47;;;;;;;6.17;90.86;100010.53;5068641;28;20201;-61
2024/03/02 03:52:37;;;;;;;30.50;19.73;;;;;;;6.16;90.94;99996.03;5063687;28;20232;-62
2024/03/02 03:55:06;;;;;;;30.53;19.60;;;;;;;6.17;90.86;100000.31;5066901;28;20204;-65
2024/03/02 03:57:34;;;;;;;29.47;19.47;;;;;;;6.16;91.77;99998.59;5070790;28;20596;-61
2024/03/02 04:00:02;;;;;;;30.17;20.47;;;;;;;6.17;91.28;100004.56;5074460;28;20197;-62
2024/03/02 04:02:30;;;;;;;29.73;20.13;;;;;;;6.14;91.00;99999.44;5072013;28;20556;-62
2024/03/02 04:04:58;;;;;;;31.43;20.57;;;;;;;6.12;91.01;99999.44;5073873;28;20205;-65
2024/03/02 04:07:28;;;;;;;31.70;21.20;;;;;;;6.10;91.26;100003.66;5072630;28;20236;-64
2024/03/02 04:09:56;;;;;;;30.77;20.17;;;;;;;6.08;91.38;100002.81;5068746;28;20627;-62
2024/03/02 04:12:24;;;;;;;31.93;21.73;;;;;;;6.07;90.98;100006.19;5070058;28;20247;-64
2024/03/02 04:14:52;;;;;;;30.90;20.63;;;;;;;6.07;91.63;100011.31;5069038;28;20197;-61
2024/03/02 04:17:20;;;;;;;30.33;19.73;;;;;;;6.07;91.11;100002.78;5074258;28;20307;-61
2024/03/02 04:19:48;;;;;;;35.43;21.07;;;;;;;6.05;91.22;100007.91;5074225;28;20717;-63
2024/03/02 04:22:16;;;;;;;30.97;20.43;;;;;;;6.05;91.50;100010.47;5074140;28;20609;-63
2024/03/02 04:24:53;;;;;;;31.77;20.30;;;;;;;6.05;91.75;100020.69;5068165;28;20220;-62
2024/03/02 04:27:21;;;;;;;31.83;21.07;;;;;;;6.06;91.31;100012.19;5067525;28;20284;-62
2024/03/02 04:29:49;;;;;;;32.17;19.53;;;;;;;6.06;91.30;100027.53;5069757;28;20254;-61
2024/03/02 04:32:19;;;;;;;32.10;21.33;;;;;;;6.04;91.28;100019.00;5074868;28;20204;-62
2024/03/02 04:34:47;;;;;;;32.70;20.17;;;;;;;6.02;91.26;100010.44;5072629;28;20349;-62
2024/03/02 04:37:15;;;;;;;30.87;20.83;;;;;;;5.98;92.10;100014.69;5073684;28;20605;-62
2024/03/02 04:39:43;;;;;;;31.77;20.10;;;;;;;5.97;92.08;100012.13;5073357;28;20197;-64
2024/03/02 04:42:12;;;;;;;32.83;20.67;;;;;;;5.95;92.50;100006.13;5073714;28;20197;-61
2024/03/02 04:44:40;;;;;;;36.73;21.93;;;;;;;5.95;92.38;100012.09;5072256;28;20598;-62
2024/03/02 04:47:08;;;;;;;33.93;20.80;;;;;;;5.94;92.20;100004.44;5070514;28;20370;-64
2024/03/02 04:49:37;;;;;;;31.93;21.10;;;;;;;5.96;92.42;100007.84;5064590;28;20225;-64
2024/03/02 04:52:08;;;;;;;31.70;20.87;;;;;;;5.96;91.87;100011.25;5071400;28;20549;-65
2024/03/02 04:55:09;;;;;;;30.80;20.93;;;;;;;5.96;92.17;100002.72;5075848;28;20572;-62
2024/03/02 04:57:24;;;;;;;31.67;19.77;;;;;;;5.97;92.83;100007.88;5071194;28;20640;-65
2024/03/02 04:59:52;;;;;;;34.37;21.13;;;;;;;5.98;92.31;100001.03;5073209;28;20202;-64
2024/03/02 05:02:20;;;;;;;31.40;19.63;;;;;;;6.00;92.81;100001.91;5068949;28;20281;-71
2024/03/02 05:04:48;;;;;;;32.80;20.80;;;;;;;5.99;92.48;100010.41;5065763;28;20210;-63
2024/03/02 05:07:16;;;;;;;30.67;19.67;;;;;;;6.01;91.69;100009.59;5063025;28;20208;-63
2024/03/02 05:09:44;;;;;;;32.70;20.23;;;;;;;6.03;93.10;100015.56;5064889;28;20239;-63
2024/03/02 05:12:29;;;;;;;29.70;19.23;;;;;;;6.07;92.46;100020.69;5067611;28;20294;-62
2024/03/02 05:14:58;;;;;;;30.93;19.50;;;;;;;6.08;92.38;100022.44;5070433;28;20280;-62
2024/03/02 05:17:27;;;;;;;27.53;18.03;;;;;;;6.07;91.17;100030.94;5073238;28;20563;-61
2024/03/02 05:19:55;;;;;;;28.97;19.37;;;;;;;6.04;90.72;100034.34;5073010;28;20224;-62
2024/03/02 05:22:22;;;;;;;28.63;18.10;;;;;;;6.02;91.92;100034.31;5072561;28;20213;-61
2024/03/02 05:24:50;;;;;;;30.30;19.10;;;;;;;6.01;92.03;100024.94;5073054;28;20724;-62
2024/03/02 05:27:18;;;;;;;30.33;19.60;;;;;;;6.01;91.93;100037.72;5067018;28;20212;-62
2024/03/02 05:29:46;;;;;;;28.90;18.73;;;;;;;6.01;92.13;100042.84;5070501;28;20674;-65
2024/03/02 05:32:16;;;;;;;29.27;18.20;;;;;;;5.99;92.07;100044.53;5070316;28;20225;-60
2024/03/02 05:34:44;;;;;;;28.47;18.50;;;;;;;5.99;91.74;100048.78;5072179;28;20205;-62
2024/03/02 05:37:12;;;;;;;29.63;19.27;;;;;;;5.98;91.65;100047.09;5072851;28;20229;-62
2024/03/02 05:39:40;;;;;;;26.10;17.47;;;;;;;5.93;92.26;100043.63;5072720;28;20198;-65
2024/03/02 05:42:08;;;;;;;32.17;19.10;;;;;;;5.96;92.74;100041.94;5072934;28;20293;-62
2024/03/02 05:44:36;;;;;;;26.43;17.90;;;;;;;5.99;93.05;100056.47;5065039;28;20209;-61
2024/03/02 05:47:05;;;;;;;29.30;19.40;;;;;;;6.02;92.72;100051.38;5067667;28;20198;-62
2024/03/02 05:49:34;;;;;;;28.23;19.23;;;;;;;6.00;91.87;100059.03;5062164;28;20210;-63
2024/03/02 05:52:02;;;;;;;27.73;17.90;;;;;;;6.00;93.01;100056.50;5067255;28;20288;-61
2024/03/02 05:54:31;;;;;;;30.97;18.33;;;;;;;6.04;93.03;100065.03;5071727;28;20208;-62
2024/03/02 05:57:16;;;;;;;30.23;18.63;;;;;;;6.03;92.97;100063.31;5075390;28;20666;-61
2024/03/02 05:59:44;;;;;;;26.97;18.47;;;;;;;6.04;91.82;100055.66;5066280;28;20223;-61
2024/03/02 06:02:12;;;;;;;27.10;17.30;;;;;;;6.05;92.27;100059.91;5066145;28;20206;-61
2024/03/02 06:04:42;;;;;;;32.37;18.13;;;;;;;6.04;91.94;100070.16;5072630;28;20638;-62
2024/03/02 06:07:10;;;;;;;28.40;17.67;;;;;;;6.03;92.01;100063.31;5072457;28;20574;-62
2024/03/02 06:09:38;;;;;;;29.97;17.03;;;;;;;6.03;91.88;100068.41;5072288;28;20352;-61
2024/03/02 06:12:06;;;;;;;28.77;17.47;;;;;;;6.00;92.18;100060.72;5063603;28;20229;-62
2024/03/02 06:14:34;;;;;;;31.17;16.60;;;;;;;6.01;92.21;100075.25;5065136;28;20201;-63
2024/03/02 06:17:02;;;;;;;24.87;16.80;;;;;;;5.98;92.73;100073.50;5067699;28;20216;-62
2024/03/02 06:19:30;;;;;;;24.00;16.73;;;;;;;6.02;92.85;100066.72;5071885;28;20211;-63
2024/03/02 06:22:00;;;;;;;26.27;16.90;;;;;;;6.04;91.96;100072.72;5071442;28;20205;-62
2024/03/02 06:24:28;;;;;;;29.27;17.70;;;;;;;6.03;92.90;100068.41;5071867;28;20293;-65
2024/03/02 06:26:56;;;;;;;26.67;17.07;;;;;;;6.04;92.31;100073.56;5068921;28;20193;-64
2024/03/02 06:29:24;;;;;;;29.13;17.83;;;;;;;6.05;92.48;100079.53;5067351;28;20592;-61
2024/03/02 06:31:52;;;;;;;28.77;18.03;;;;;;;6.03;92.34;100068.41;5073838;28;20551;-62
2024/03/02 06:34:22;;;;;;;29.30;17.40;;;;;;;6.05;92.46;100076.97;5069703;28;20214;-62
2024/03/02 06:36:50;;;;;;;27.03;16.77;;;;;;;6.11;93.05;100092.34;5058566;28;20213;-61
2024/03/02 06:39:19;;;;;;;30.10;17.80;;;;;;;6.17;93.11;100082.16;5070563;28;20197;-61
2024/03/02 06:41:47;;;;;;;26.70;16.07;;;;;;;6.24;92.49;100086.47;5062667;28;20288;-63
2024/03/02 06:44:15;;;;;;;23.70;16.80;;;;;;;6.24;91.94;100088.19;5067182;28;20197;-62
2024/03/02 06:46:43;;;;;;;28.27;17.07;;;;;;;6.31;92.39;100094.22;5070711;28;20201;-63
2024/03/02 06:49:12;;;;;;;29.23;17.70;;;;;;;6.34;91.70;100096.78;5070742;28;20297;-61
2024/03/02 06:51:42;;;;;;;29.53;17.77;;;;;;;6.35;91.83;100084.00;5068069;28;20915;-64
2024/03/02 06:54:10;;;;;;;25.47;16.47;;;;;;;6.40;91.00;100084.00;5068690;28;20201;-62
2024/03/02 06:56:39;;;;;;;27.17;16.40;;;;;;;6.41;91.49;100090.88;5070938;28;20666;-62
2024/03/02 06:59:07;;;;;;;28.07;15.93;;;;;;;6.42;91.53;100092.56;5071249;28;20206;-61
2024/03/02 07:01:36;;;;;;;27.13;16.63;;;;;;;6.43;91.40;100095.13;5071098;28;20212;-61
2024/03/02 07:04:06;;;;;;;24.70;16.43;;;;;;;6.45;90.74;100090.03;5067553;28;20190;-64
2024/03/02 07:06:34;;;;;;;25.60;15.67;;;;;;;6.47;90.45;100099.41;5063584;28;20212;-63
2024/03/02 07:09:02;;;;;;;25.93;15.60;;;;;;;6.50;90.13;100090.91;5073446;28;20201;-60
2024/03/02 07:11:30;;;;;;;24.73;15.97;;;;;;;6.51;89.95;100093.47;5059223;28;20223;-62
2024/03/02 07:14:00;;;;;;;23.93;16.20;;;;;;;6.53;90.28;100088.38;5058585;28;20310;-63
2024/03/02 07:16:32;;;;;;;29.50;16.63;;;;;;;6.53;89.87;100091.78;5065091;28;20789;-63
2024/03/02 07:19:01;;;;;;;28.63;16.17;;;;;;;6.53;90.00;100091.78;5069823;28;20201;-67
2024/03/02 07:21:30;;;;;;;26.67;16.23;;;;;;;6.52;90.35;100090.06;5062516;28;20201;-65
2024/03/02 07:23:58;;;;;;;25.07;15.60;;;;;;;6.53;90.00;100096.03;5071854;28;20201;-62
2024/03/02 07:26:26;;;;;;;25.30;16.27;;;;;;;6.50;90.28;100091.75;5070024;28;20213;-67
2024/03/02 07:28:57;;;;;;;24.23;16.50;;;;;;;6.51;89.86;100101.13;5063470;28;20353;-64
2024/03/02 07:31:27;;;;;;;24.97;16.37;;;;;;;6.48;89.80;100107.94;5068127;28;20221;-65
2024/03/02 07:33:55;;;;;;;25.30;15.80;;;;;;;6.46;90.12;100097.72;5068165;28;20211;-63
2024/03/02 07:36:23;;;;;;;28.90;15.83;;;;;;;6.50;90.56;100101.16;5064253;28;20221;-64
2024/03/02 07:38:51;;;;;;;26.60;17.23;;;;;;;6.49;90.44;100096.88;5067944;28;20201;-64
2024/03/02 07:41:19;;;;;;;29.03;16.43;;;;;;;6.46;90.25;100101.97;5069902;28;20284;-64
2024/03/02 07:43:48;;;;;;;23.97;15.30;;;;;;;6.46;90.56;100105.38;5066467;28;20224;-64
2024/03/02 07:46:17;;;;;;;28.10;15.10;;;;;;;6.50;90.63;100106.25;5065811;28;20267;-66
2024/03/02 07:48:47;;;;;;;26.10;16.07;;;;;;;6.51;91.04;100097.72;5067450;28;20202;-66
2024/03/02 07:51:16;;;;;;;26.33;16.50;;;;;;;6.51;90.73;100106.25;5062416;28;20213;-65
2024/03/02 07:53:45;;;;;;;27.07;15.33;;;;;;;6.52;90.60;100099.47;5074007;28;20208;-68
2024/03/02 07:56:21;;;;;;;25.53;15.50;;;;;;;6.57;90.27;100099.47;5067085;28;20206;-66
2024/03/02 07:58:49;;;;;;;30.07;16.63;;;;;;;6.60;90.94;100108.03;5058165;28;20403;-65
2024/03/02 08:01:18;;;;;;;23.63;15.37;;;;;;;6.66;90.18;100113.16;5058919;28;20205;-66
2024/03/02 08:03:49;;;;;;;25.10;16.10;;;;;;;6.72;89.95;100120.88;5067304;28;20262;-67
2024/03/02 08:06:20;;;;;;;25.87;15.27;;;;;;;6.76;90.18;100126.88;5064019;28;20608;-66
2024/03/02 08:08:49;;;;;;;26.43;15.73;;;;;;;6.80;89.78;100125.19;5066297;28;20198;-68
2024/03/02 08:11:17;;;;;;;25.47;14.60;;;;;;;6.86;89.42;100131.22;5067245;28;20213;-66
2024/03/02 08:13:48;;;;;;;27.63;15.80;;;;;;;6.93;89.12;100132.09;5067492;28;20263;-65
2024/03/02 08:16:19;;;;;;;27.97;16.00;;;;;;;6.93;89.52;100121.84;5059776;28;20197;-65
2024/03/02 08:18:49;;;;;;;24.90;14.73;;;;;;;6.98;88.94;100123.56;5063816;28;20209;-65
2024/03/02 08:21:18;;;;;;;23.33;15.10;;;;;;;6.98;88.13;100122.72;5071847;28;20570;-67
2024/03/02 08:23:46;;;;;;;23.53;14.73;;;;;;;7.00;88.47;100121.88;5078016;28;20254;-65
2024/03/02 08:26:14;;;;;;;23.07;13.67;;;;;;;7.02;87.77;100129.56;5079044;28;20204;-65
2024/03/02 08:28:42;;;;;;;24.13;15.40;;;;;;;7.03;88.01;100123.59;5069492;28;20286;-65
2024/03/02 08:31:11;;;;;;;27.43;15.50;;;;;;;7.05;88.59;100118.50;5067454;28;20592;-65
2024/03/02 08:33:40;;;;;;;22.17;14.83;;;;;;;7.11;88.24;100121.94;5072113;28;20197;-65
2024/03/02 08:36:10;;;;;;;24.10;14.83;;;;;;;7.14;87.57;100115.94;5059452;28;20667;-65
2024/03/02 08:38:38;;;;;;;23.20;15.37;;;;;;;7.11;87.78;100131.34;5064902;28;20275;-66
2024/03/02 08:41:07;;;;;;;25.27;15.73;;;;;;;7.13;88.57;100132.19;5073969;28;20201;-66
2024/03/02 08:43:36;;;;;;;26.50;15.97;;;;;;;7.18;88.60;100133.03;5072557;28;20198;-65
2024/03/02 08:46:04;;;;;;;27.93;16.50;;;;;;;7.22;87.98;100130.50;5080716;28;20628;-66
2024/03/02 08:48:32;;;;;;;28.97;15.87;;;;;;;7.24;87.92;100138.19;5074953;28;20206;-65
2024/03/02 08:51:01;;;;;;;27.03;15.67;;;;;;;7.23;86.85;100127.09;5073969;28;20225;-67
2024/03/02 08:53:30;;;;;;;28.57;15.80;;;;;;;7.28;87.43;100142.47;5072987;28;20223;-67
2024/03/02 08:55:58;;;;;;;31.27;16.30;;;;;;;7.28;87.92;100133.94;5077897;28;20304;-67
2024/03/02 08:58:29;;;;;;;25.17;16.53;;;;;;;7.29;86.72;100138.19;5070393;28;20238;-68
2024/03/02 09:00:57;;;;;;;27.67;16.27;;;;;;;7.24;86.69;100130.50;5070317;28;20200;-67
2024/03/02 09:03:25;;;;;;;26.03;15.80;;;;;;;7.25;86.53;100130.53;5077444;28;21009;-66
2024/03/02 09:05:53;;;;;;;27.50;15.03;;;;;;;7.29;87.29;100138.19;5057615;28;20292;-66
2024/03/02 09:08:21;;;;;;;24.67;15.53;;;;;;;7.23;86.21;100134.78;5077299;28;20198;-66
2024/03/02 09:10:51;;;;;;;26.10;16.50;;;;;;;7.30;86.91;100133.09;5072614;28;20264;-66
2024/03/02 09:13:19;;;;;;;25.60;15.23;;;;;;;7.33;87.73;100142.47;5068074;28;20243;-67
2024/03/02 09:15:47;;;;;;;33.03;16.53;;;;;;;7.41;87.51;100135.69;5069179;28;20238;-66
2024/03/02 09:18:15;;;;;;;30.03;16.50;;;;;;;7.43;86.85;100139.94;5072028;28;20205;-64
2024/03/02 09:20:43;;;;;;;26.07;15.83;;;;;;;7.44;86.33;100130.59;5078541;28;20208;-64
2024/03/02 09:23:12;;;;;;;28.43;16.27;;;;;;;7.47;86.36;100140.81;5079657;28;20205;-64
2024/03/02 09:25:39;;;;;;;24.23;15.53;;;;;;;7.49;86.69;100132.28;5072805;28;20212;-64
2024/03/02 09:28:09;;;;;;;25.17;16.53;;;;;;;7.55;86.85;100144.28;5073126;28;20285;-65
2024/03/02 09:30:37;;;;;;;27.10;15.93;;;;;;;7.64;86.60;100139.16;5070270;28;20217;-65
2024/03/02 09:33:05;;;;;;;25.30;15.00;;;;;;;7.70;86.50;100144.31;5072874;28;20575;-65
2024/03/02 09:35:36;;;;;;;23.90;14.87;;;;;;;7.71;85.29;100135.75;5064195;28;20207;-68
2024/03/02 09:38:04;;;;;;;26.03;14.47;;;;;;;7.69;85.06;100137.44;5067716;28;20196;-65
2024/03/02 09:40:33;;;;;;;23.77;15.40;;;;;;;7.70;85.21;100134.03;5067337;28;20212;-67
2024/03/02 09:43:01;;;;;;;24.87;15.47;;;;;;;7.70;85.51;100135.75;5072948;28;20707;-66
2024/03/02 09:45:31;;;;;;;27.27;15.20;;;;;;;7.72;85.42;100137.44;5061969;28;20209;-66
2024/03/02 09:48:00;;;;;;;26.33;16.03;;;;;;;7.72;84.66;100137.44;5062336;28;20205;-64
2024/03/02 09:50:28;;;;;;;24.87;15.70;;;;;;;7.75;84.87;100134.91;5067253;28;20661;-62
2024/03/02 09:52:56;;;;;;;24.10;14.23;;;;;;;7.81;85.38;100128.09;5072994;28;20197;-62
2024/03/02 09:55:24;;;;;;;25.93;15.43;;;;;;;7.89;85.04;100141.75;5065883;28;20205;-63
2024/03/02 09:57:53;;;;;;;23.10;14.80;;;;;;;7.89;83.60;100131.50;5071766;28;20202;-67
2024/03/02 10:00:21;;;;;;;25.87;16.30;;;;;;;7.88;83.68;100133.22;5071528;28;20201;-68
2024/03/02 10:02:51;;;;;;;23.97;15.17;;;;;;;7.96;84.08;100130.66;5064828;28;20202;-68
2024/03/02 10:05:25;;;;;;;26.80;14.47;;;;;;;7.98;83.73;100136.63;5058925;28;20298;-69
2024/03/02 10:08:01;;;;;;;23.73;15.37;;;;;;;7.94;83.56;100128.06;5062864;28;20269;-66
2024/03/02 10:10:39;;;;;;;29.10;15.23;;;;;;;7.94;84.31;100129.78;5068626;28;20209;-68
2024/03/02 10:13:09;;;;;;;25.20;16.00;;;;;;;8.00;84.28;100127.22;5071877;28;20662;-68
2024/03/02 10:15:40;;;;;;;26.87;15.27;;;;;;;8.03;83.22;100127.22;5063641;28;20205;-67
2024/03/02 10:18:12;;;;;;;26.27;14.97;;;;;;;8.04;83.21;100120.38;5068241;28;20202;-70
2024/03/02 10:20:40;;;;;;;27.00;15.93;;;;;;;8.06;83.48;100111.81;5070423;28;20208;-66
2024/03/02 10:23:13;;;;;;;24.00;14.57;;;;;;;8.09;83.93;100101.56;5071918;28;20281;-67
2024/03/02 10:25:41;;;;;;;23.53;14.10;;;;;;;8.13;84.00;100103.25;5071433;28;20262;-67
2024/03/02 10:28:24;;;;;;;23.97;15.33;;;;;;;8.20;83.32;100106.69;5069267;28;20205;-68
2024/03/02 10:30:53;;;;;;;26.63;16.20;;;;;;;8.20;83.02;100107.53;5063896;28;20201;-68
2024/03/02 10:33:23;;;;;;;24.70;15.03;;;;;;;8.20;82.84;100104.97;5072030;28;20262;-67
2024/03/02 10:35:51;;;;;;;27.30;17.10;;;;;;;8.19;82.70;100115.25;5065585;28;20622;-68
2024/03/02 10:38:20;;;;;;;21.13;14.57;;;;;;;8.21;83.01;100105.81;5069922;28;20637;-68
2024/03/02 10:40:49;;;;;;;28.97;16.13;;;;;;;8.26;82.71;100108.41;5067331;28;20616;-69
2024/03/02 10:43:18;;;;;;;24.30;15.17;;;;;;;8.35;82.74;100108.38;5068357;28;20294;-68
2024/03/02 10:45:50;;;;;;;26.70;16.50;;;;;;;8.43;81.45;100104.09;5072358;28;20212;-68
2024/03/02 10:48:21;;;;;;;25.50;15.50;;;;;;;8.48;81.69;100109.25;5065611;28;20201;-66
2024/03/02 10:50:54;;;;;;;27.27;14.73;;;;;;;8.54;81.63;100093.81;5072063;28;20240;-68
2024/03/02 10:53:22;;;;;;;25.40;15.37;;;;;;;8.59;81.19;100100.66;5072389;28;20201;-67
2024/03/02 10:55:54;;;;;;;25.40;14.80;;;;;;;8.65;81.28;100100.66;5065602;28;20571;-68
2024/03/02 10:58:27;;;;;;;27.33;15.27;;;;;;;8.68;81.15;100107.47;5073862;28;20231;-67
2024/03/02 11:00:56;;;;;;;27.20;15.53;;;;;;;8.76;81.28;100094.59;5069732;28;20205;-68
2024/03/02 11:03:25;;;;;;;29.30;14.63;;;;;;;8.80;80.78;100093.72;5070152;28;20263;-68
2024/03/02 11:05:54;;;;;;;25.80;16.53;;;;;;;8.77;80.13;100086.91;5071731;28;20193;-69
2024/03/02 11:08:26;;;;;;;21.60;15.07;;;;;;;8.75;80.20;100092.91;5066808;28;20212;-68
2024/03/02 11:11:00;;;;;;;26.67;16.37;;;;;;;8.73;80.46;100092.91;5063584;28;20201;-68
2024/03/02 11:13:33;;;;;;;27.30;16.63;;;;;;;8.75;80.81;100090.34;5071783;28;20247;-67
2024/03/02 11:16:10;;;;;;;28.40;15.90;;;;;;;8.76;81.11;100090.31;5070556;28;20274;-68
2024/03/02 11:18:39;;;;;;;28.87;17.10;;;;;;;8.81;80.22;100085.19;5065490;28;20564;-68
2024/03/02 11:21:09;;;;;;;29.20;17.27;;;;;;;8.80;80.31;100086.91;5068981;28;20565;-68
2024/03/02 11:23:37;;;;;;;31.17;17.10;;;;;;;8.76;80.24;100079.19;5071976;28;20206;-68
2024/03/02 11:26:18;;;;;;;28.30;17.37;;;;;;;8.77;80.01;100086.91;5060960;28;20300;-68